createdAt,value
2023-03-28T00:00:52.030Z,9.32
2023-03-28T00:03:22.495Z,16.35
2023-03-28T00:05:50.373Z,12.57
2023-03-28T00:08:17.837Z,10.85
2023-03-28T00:10:45.400Z,9.23
2023-03-28T00:13:14.175Z,6.72
2023-03-28T00:15:42.408Z,7.50
2023-03-28T00:18:12.665Z,6.82
2023-03-28T00:20:42.864Z,10.77
2023-03-28T00:23:12.230Z,8.60
2023-03-28T00:25:43.716Z,10.88
2023-03-28T00:28:10.542Z,16.98
2023-03-28T00:30:37.356Z,12.73
2023-03-28T00:33:05.510Z,7.13
2023-03-28T00:35:33.200Z,10.90
2023-03-28T00:38:00.019Z,10.32
2023-03-28T00:40:27.489Z,8.95
2023-03-28T00:42:54.533Z,19.67
2023-03-28T00:45:21.597Z,16.70
2023-03-28T00:47:51.699Z,11.32
2023-03-28T00:50:28.968Z,11.20
2023-03-28T00:53:09.527Z,15.27
2023-03-28T00:55:38.638Z,9.20
2023-03-28T00:58:11.130Z,9.23
2023-03-28T01:00:41.378Z,6.90
2023-03-28T01:03:09.216Z,6.35
2023-03-28T01:05:37.186Z,10.07
2023-03-28T01:08:08.909Z,8.82
2023-03-28T01:10:36.028Z,8.23
2023-03-28T01:13:06.102Z,9.23
2023-03-28T01:15:33.827Z,7.18
2023-03-28T01:18:03.776Z,7.53
2023-03-28T01:20:51.597Z,11.75
2023-03-28T01:23:52.977Z,14.30
2023-03-28T01:27:35.502Z,6.18
2023-03-28T01:30:20.815Z,11.10
2023-03-28T01:33:26.004Z,8.75
2023-03-28T01:36:34.817Z,11.43
2023-03-28T01:39:09.485Z,13.05
2023-03-28T01:42:02.645Z,12.85
2023-03-28T01:44:36.430Z,12.57
2023-03-28T01:47:20.087Z,10.40
2023-03-28T01:50:03.404Z,10.57
2023-03-28T01:52:57.814Z,5.65
2023-03-28T01:55:30.329Z,10.85
2023-03-28T01:58:02.223Z,10.18
2023-03-28T02:00:43.682Z,12.10
2023-03-28T02:03:22.154Z,13.13
2023-03-28T02:05:57.228Z,11.32
2023-03-28T02:08:29.421Z,6.55
2023-03-28T02:11:16.931Z,8.55
2023-03-28T02:13:58.242Z,9.30
2023-03-28T02:16:44.366Z,9.43
2023-03-28T02:19:31.377Z,12.00
2023-03-28T02:22:16.768Z,5.93
2023-03-28T02:24:56.495Z,13.10
2023-03-28T02:27:49.237Z,14.82
2023-03-28T02:30:23.597Z,7.68
2023-03-28T02:32:51.688Z,11.93
2023-03-28T02:35:25.070Z,19.60
2023-03-28T02:37:54.895Z,9.55
2023-03-28T02:41:04.523Z,7.47
2023-03-28T02:43:41.730Z,9.27
2023-03-28T02:46:56.130Z,10.90
2023-03-28T02:49:50.360Z,10.43
2023-03-28T02:52:40.333Z,13.07
2023-03-28T02:55:17.966Z,17.50
2023-03-28T02:58:16.177Z,9.00
2023-03-28T03:00:43.193Z,10.60
2023-03-28T03:03:14.156Z,8.95
2023-03-28T03:05:41.477Z,13.27
2023-03-28T03:08:08.339Z,12.43
2023-03-28T03:10:35.756Z,13.80
2023-03-28T03:13:02.685Z,12.05
2023-03-28T03:15:30.842Z,7.90
2023-03-28T03:17:59.019Z,9.63
2023-03-28T03:20:33.738Z,8.10
2023-03-28T03:23:02.222Z,9.43
2023-03-28T03:25:31.427Z,6.38
2023-03-28T03:28:21.466Z,7.05
2023-03-28T03:30:51.890Z,13.20
2023-03-28T03:33:52.163Z,14.80
2023-03-28T03:36:24.132Z,15.00
2023-03-28T03:38:51.029Z,12.32
2023-03-28T03:41:21.425Z,12.20
2023-03-28T03:43:48.974Z,9.00
2023-03-28T03:46:15.875Z,12.25
2023-03-28T03:48:50.062Z,8.25
2023-03-28T03:51:18.173Z,7.47
2023-03-28T03:53:46.737Z,11.00
2023-03-28T03:56:17.971Z,7.05
2023-03-28T03:58:56.570Z,13.40
2023-03-28T04:01:30.003Z,7.85
2023-03-28T04:04:04.210Z,6.93
2023-03-28T04:06:46.996Z,12.82
2023-03-28T04:09:13.970Z,10.63
2023-03-28T04:12:01.887Z,9.18
2023-03-28T04:14:30.143Z,7.40
2023-03-28T04:17:23.382Z,9.30
2023-03-28T04:19:50.491Z,10.57
2023-03-28T04:22:18.772Z,8.75
2023-03-28T04:24:53.527Z,6.07
2023-03-28T04:27:42.009Z,9.57
2023-03-28T04:30:11.143Z,11.45
2023-03-28T04:33:12.954Z,11.27
2023-03-28T04:35:41.594Z,10.90
2023-03-28T04:38:09.856Z,9.88
2023-03-28T04:40:58.026Z,10.55
2023-03-28T04:43:44.882Z,15.25
2023-03-28T04:46:11.824Z,10.82
2023-03-28T04:48:38.874Z,10.05
2023-03-28T04:51:06.682Z,9.93
2023-03-28T04:53:37.874Z,9.90
2023-03-28T04:56:23.481Z,8.77
2023-03-28T04:58:50.513Z,10.85
2023-03-28T05:01:18.093Z,11.15
2023-03-28T05:04:04.788Z,9.73
2023-03-28T05:06:32.132Z,5.82
2023-03-28T05:09:00.999Z,5.72
2023-03-28T05:11:31.181Z,10.77
2023-03-28T05:13:58.024Z,8.32
2023-03-28T05:16:41.983Z,11.48
2023-03-28T05:19:27.105Z,10.98
2023-03-28T05:22:04.951Z,11.45
2023-03-28T05:24:31.831Z,13.70
2023-03-28T05:26:58.573Z,9.88
2023-03-28T05:29:26.129Z,9.25
2023-03-28T05:31:53.419Z,9.07
2023-03-28T05:34:29.794Z,5.43
2023-03-28T05:36:58.075Z,7.72
2023-03-28T05:39:29.278Z,12.90
2023-03-28T05:42:02.609Z,8.23
2023-03-28T05:44:29.681Z,8.77
2023-03-28T05:47:14.554Z,10.75
2023-03-28T05:49:42.887Z,10.15
2023-03-28T05:52:10.723Z,8.38
2023-03-28T05:54:39.024Z,8.93
2023-03-28T05:57:06.511Z,14.68
2023-03-28T05:59:34.267Z,8.85
2023-03-28T06:02:03.385Z,12.43
2023-03-28T06:04:30.366Z,16.17
2023-03-28T06:06:57.205Z,17.80
2023-03-28T06:09:26.234Z,11.33
2023-03-28T06:11:58.504Z,10.50
2023-03-28T06:14:25.974Z,17.37
2023-03-28T06:16:54.860Z,9.13
2023-03-28T06:19:22.177Z,14.07
2023-03-28T06:21:54.819Z,12.63
2023-03-28T06:24:21.938Z,14.27
2023-03-28T06:26:49.107Z,9.33
2023-03-28T06:29:19.862Z,7.83
2023-03-28T06:31:48.787Z,18.37
2023-03-28T06:34:17.526Z,8.70
2023-03-28T06:37:02.049Z,12.57
2023-03-28T06:39:43.358Z,10.47
2023-03-28T06:42:10.894Z,12.03
2023-03-28T06:44:54.285Z,9.83
2023-03-28T06:47:30.339Z,15.43
2023-03-28T06:49:57.747Z,15.03
2023-03-28T06:52:51.054Z,7.80
2023-03-28T06:55:18.038Z,16.70
2023-03-28T06:57:44.781Z,14.93
2023-03-28T07:00:21.727Z,20.75
2023-03-28T07:03:07.099Z,10.40
2023-03-28T07:05:42.205Z,12.80
2023-03-28T07:08:10.747Z,10.23
2023-03-28T07:10:39.163Z,12.60
2023-03-28T07:13:07.299Z,11.63
2023-03-28T07:15:36.179Z,8.53
2023-03-28T07:18:05.926Z,12.67
2023-03-28T07:20:33.155Z,9.40
2023-03-28T07:23:00.153Z,12.97
2023-03-28T07:25:27.475Z,9.30
2023-03-28T07:27:54.428Z,11.97
2023-03-28T07:30:21.389Z,12.27
2023-03-28T07:32:56.691Z,13.27
2023-03-28T07:35:30.924Z,11.17
2023-03-28T07:37:59.228Z,14.67
2023-03-28T07:40:45.751Z,11.23
2023-03-28T07:43:12.679Z,10.17
2023-03-28T07:45:39.578Z,8.17
2023-03-28T07:48:06.918Z,8.43
2023-03-28T07:50:33.955Z,15.23
2023-03-28T07:53:01.273Z,11.73
2023-03-28T07:55:41.820Z,6.93
2023-03-28T07:58:12.787Z,8.87
2023-03-28T08:00:43.152Z,8.53
2023-03-28T08:03:39.702Z,12.67
2023-03-28T08:06:20.081Z,6.60
2023-03-28T08:08:56.036Z,8.50
2023-03-28T08:11:29.409Z,5.80
2023-03-28T08:13:56.449Z,6.80
2023-03-28T08:16:25.048Z,13.90
2023-03-28T08:19:09.109Z,11.47
2023-03-28T08:21:44.767Z,8.50
2023-03-28T08:24:17.347Z,8.03
2023-03-28T08:26:58.401Z,8.07
2023-03-28T08:29:25.756Z,8.10
2023-03-28T08:31:53.020Z,5.63
2023-03-28T08:34:21.183Z,14.57
2023-03-28T08:36:48.993Z,8.17
2023-03-28T08:39:26.002Z,13.13
2023-03-28T08:41:52.765Z,7.53
2023-03-28T08:44:41.770Z,8.17
2023-03-28T08:47:19.169Z,6.93
2023-03-28T08:49:53.363Z,8.87
2023-03-28T08:52:21.519Z,8.70
2023-03-28T08:55:02.462Z,10.07
2023-03-28T08:57:30.569Z,7.40
2023-03-28T09:00:20.452Z,16.20
2023-03-28T09:02:48.698Z,8.67
2023-03-28T09:05:29.196Z,8.57
2023-03-28T09:08:23.801Z,10.80
2023-03-28T09:11:12.688Z,6.73
2023-03-28T09:14:06.999Z,9.37
2023-03-28T09:17:00.746Z,21.10
2023-03-28T09:19:48.807Z,11.83
2023-03-28T09:23:08.157Z,12.27
2023-03-28T09:26:20.240Z,6.83
2023-03-28T09:29:16.305Z,9.23
2023-03-28T09:31:49.657Z,10.77
2023-03-28T09:34:24.119Z,9.07
2023-03-28T09:36:55.477Z,9.77
2023-03-28T09:39:33.420Z,8.30
2023-03-28T09:42:19.659Z,12.30
2023-03-28T09:45:25.136Z,5.90
2023-03-28T09:48:22.386Z,10.63
2023-03-28T09:50:49.652Z,6.00
2023-03-28T09:53:43.417Z,14.30
2023-03-28T09:56:13.668Z,4.47
2023-03-28T09:59:00.126Z,8.70
2023-03-28T10:01:43.192Z,8.50
2023-03-28T10:04:28.483Z,5.00
2023-03-28T10:07:13.458Z,7.33
2023-03-28T10:09:54.002Z,5.83
2023-03-28T10:12:29.120Z,9.50
2023-03-28T10:14:56.099Z,4.63
2023-03-28T10:17:41.184Z,9.60
2023-03-28T10:20:17.993Z,10.77
2023-03-28T10:22:51.859Z,6.43
2023-03-28T10:25:49.254Z,5.40
2023-03-28T10:28:43.891Z,9.60
2023-03-28T10:31:22.900Z,8.27
2023-03-28T10:33:53.188Z,7.27
2023-03-28T10:36:53.050Z,3.87
2023-03-28T10:39:31.177Z,12.93
2023-03-28T10:42:16.668Z,3.80
2023-03-28T10:45:42.681Z,5.80
2023-03-28T10:48:19.009Z,5.97
2023-03-28T10:50:51.813Z,6.53
2023-03-28T10:53:27.573Z,4.83
2023-03-28T10:56:15.791Z,10.10
2023-03-28T10:58:52.211Z,4.47
2023-03-28T11:01:33.257Z,8.40
2023-03-28T11:04:24.399Z,7.33
2023-03-28T11:07:31.195Z,6.50
2023-03-28T11:10:30.938Z,4.17
2023-03-28T11:13:40.989Z,5.23
2023-03-28T11:16:21.676Z,13.40
2023-03-28T11:19:35.787Z,6.63
2023-03-28T11:22:12.829Z,5.47
2023-03-28T11:25:07.389Z,5.80
2023-03-28T11:28:03.666Z,5.93
2023-03-28T11:30:36.217Z,6.00
2023-03-28T11:33:48.142Z,5.13
2023-03-28T11:36:34.098Z,4.90
2023-03-28T11:39:33.780Z,10.87
2023-03-28T11:42:06.989Z,3.43
2023-03-28T11:44:59.056Z,4.87
2023-03-28T11:47:49.658Z,2.80
2023-03-28T11:50:31.115Z,3.27
2023-03-28T11:53:15.470Z,5.57
2023-03-28T11:56:06.790Z,3.13
2023-03-28T11:58:56.636Z,5.07
2023-03-28T12:01:27.183Z,3.90
2023-03-28T12:03:59.090Z,4.70
2023-03-28T12:06:37.359Z,9.97
2023-03-28T12:09:44.399Z,6.43
2023-03-28T12:12:14.555Z,6.43
2023-03-28T12:15:03.132Z,8.90
2023-03-28T12:17:47.840Z,6.40
2023-03-28T12:20:29.189Z,4.67
2023-03-28T12:23:00.204Z,5.57
2023-03-28T12:26:21.682Z,10.30
2023-03-28T12:28:53.858Z,5.33
2023-03-28T12:31:28.961Z,7.73
2023-03-28T12:34:31.942Z,5.07
2023-03-28T12:37:25.063Z,5.80
2023-03-28T12:40:24.923Z,8.13
2023-03-28T12:42:54.778Z,3.57
2023-03-28T12:45:32.627Z,10.97
2023-03-28T12:48:06.589Z,10.80
2023-03-28T12:50:48.540Z,7.03
2023-03-28T12:53:17.265Z,4.80
2023-03-28T12:55:49.228Z,4.27
2023-03-28T12:58:20.842Z,8.90
2023-03-28T13:01:09.228Z,6.23
2023-03-28T13:04:05.468Z,5.73
2023-03-28T13:07:01.132Z,7.43
2023-03-28T13:09:56.146Z,7.10
2023-03-28T13:12:37.763Z,3.53
2023-03-28T13:15:13.678Z,9.87
2023-03-28T13:17:48.706Z,4.83
2023-03-28T13:20:15.651Z,7.70
2023-03-28T13:23:13.038Z,8.70
2023-03-28T13:25:40.176Z,4.80
2023-03-28T13:28:13.059Z,6.67
2023-03-28T13:30:44.512Z,5.73
2023-03-28T13:33:21.180Z,9.37
2023-03-28T13:35:50.638Z,5.23
2023-03-28T13:38:29.656Z,4.93
2023-03-28T13:41:06.471Z,4.97
2023-03-28T13:43:35.761Z,8.93
2023-03-28T13:46:08.515Z,7.27
2023-03-28T13:49:12.983Z,3.57
2023-03-28T13:51:54.944Z,5.90
2023-03-28T13:54:22.884Z,6.97
2023-03-28T13:56:51.256Z,5.47
2023-03-28T13:59:23.467Z,6.97
2023-03-28T14:01:57.541Z,5.30
2023-03-28T14:04:25.960Z,7.03
2023-03-28T14:06:55.249Z,5.90
2023-03-28T14:09:28.347Z,3.93
2023-03-28T14:11:56.926Z,4.20
2023-03-28T14:14:33.888Z,3.90
2023-03-28T14:17:03.731Z,4.30
2023-03-28T14:19:55.165Z,4.47
2023-03-28T14:22:25.315Z,2.70
2023-03-28T14:24:54.076Z,5.00
2023-03-28T14:27:48.197Z,5.60
2023-03-28T14:30:39.373Z,4.60
2023-03-28T14:33:14.355Z,6.50
2023-03-28T14:35:51.111Z,2.50
2023-03-28T14:38:38.409Z,5.37
2023-03-28T14:41:14.463Z,4.33
2023-03-28T14:43:41.342Z,4.93
2023-03-28T14:46:09.993Z,5.30
2023-03-28T14:48:38.232Z,5.73
2023-03-28T14:51:05.983Z,3.40
2023-03-28T14:53:45.468Z,5.30
2023-03-28T14:56:17.223Z,6.73
2023-03-28T14:58:46.149Z,3.40
2023-03-28T15:01:22.796Z,2.97
2023-03-28T15:03:57.511Z,4.73
2023-03-28T15:06:25.252Z,6.63
2023-03-28T15:08:57.508Z,4.73
2023-03-28T15:11:29.859Z,4.50
2023-03-28T15:14:04.242Z,4.30
2023-03-28T15:16:32.901Z,5.43
2023-03-28T15:19:09.373Z,5.60
2023-03-28T15:21:39.926Z,3.63
2023-03-28T15:24:11.465Z,6.13
2023-03-28T15:26:43.329Z,6.23
2023-03-28T15:29:12.408Z,9.00
2023-03-28T15:31:47.795Z,10.33
2023-03-28T15:34:27.927Z,6.17
2023-03-28T15:37:00.632Z,4.00
2023-03-28T15:39:29.944Z,5.00
2023-03-28T15:42:01.849Z,7.10
2023-03-28T15:44:31.699Z,4.80
2023-03-28T15:47:02.153Z,4.23
2023-03-28T15:52:23.980Z,3.63
2023-03-28T15:54:53.592Z,3.80
2023-03-28T15:57:22.553Z,2.00
2023-03-28T15:59:55.270Z,2.80
2023-03-28T16:02:25.835Z,2.63
2023-03-28T16:05:12.276Z,4.17
2023-03-28T16:07:48.647Z,4.77
2023-03-28T16:10:24.622Z,4.53
2023-03-28T16:13:14.873Z,3.97
2023-03-28T16:16:00.746Z,4.90
2023-03-28T16:18:45.147Z,6.23
2023-03-28T16:21:13.018Z,3.07
2023-03-28T16:23:39.890Z,2.03
2023-03-28T16:26:07.224Z,8.13
2023-03-28T16:28:34.990Z,3.43
2023-03-28T16:31:02.372Z,2.77
2023-03-28T16:33:29.779Z,6.73
2023-03-28T16:35:56.897Z,2.80
2023-03-28T16:38:24.063Z,3.10
2023-03-28T16:40:51.794Z,3.80
2023-03-28T16:43:18.773Z,4.57
2023-03-28T16:45:47.308Z,9.80
2023-03-28T16:48:14.429Z,4.10
2023-03-28T16:50:41.316Z,3.60
2023-03-28T16:53:08.271Z,6.63
2023-03-28T16:55:35.304Z,5.50
2023-03-28T16:58:03.057Z,3.17
2023-03-28T17:00:37.467Z,2.30
2023-03-28T17:03:05.461Z,5.20
2023-03-28T17:05:32.457Z,3.60
2023-03-28T17:07:59.796Z,3.07
2023-03-28T17:10:29.008Z,5.20
2023-03-28T17:12:56.835Z,4.03
2023-03-28T17:15:23.702Z,1.23
2023-03-28T17:17:50.580Z,3.43
2023-03-28T17:20:18.029Z,2.80
2023-03-28T17:22:46.460Z,3.47
2023-03-28T17:25:13.471Z,3.27
2023-03-28T17:27:40.565Z,3.43
2023-03-28T17:30:09.757Z,4.33
2023-03-28T17:32:36.846Z,2.60
2023-03-28T17:35:04.114Z,2.33
2023-03-28T17:37:31.739Z,2.70
2023-03-28T17:39:58.616Z,2.47
2023-03-28T17:42:26.038Z,3.80
2023-03-28T17:44:54.761Z,5.47
2023-03-28T17:47:22.670Z,3.53
2023-03-28T17:49:49.738Z,9.17
2023-03-28T17:52:16.855Z,1.97
2023-03-28T17:54:43.885Z,6.50
2023-03-28T17:57:11.036Z,1.63
2023-03-28T17:59:38.280Z,4.47
2023-03-28T18:02:05.365Z,1.03
2023-03-28T18:04:32.257Z,2.40
2023-03-28T18:07:21.337Z,2.13
2023-03-28T18:09:48.694Z,1.30
2023-03-28T18:12:15.957Z,1.47
2023-03-28T18:14:43.412Z,2.37
2023-03-28T18:17:10.453Z,2.83
2023-03-28T18:19:37.716Z,2.73
2023-03-28T18:22:04.856Z,2.57
2023-03-28T18:24:34.322Z,6.63
2023-03-28T18:27:01.782Z,2.47
2023-03-28T18:29:28.668Z,1.30
2023-03-28T18:31:55.533Z,8.17
2023-03-28T18:34:22.489Z,2.63
2023-03-28T18:36:49.356Z,4.13
2023-03-28T18:39:16.674Z,2.43
2023-03-28T18:41:43.826Z,3.00
2023-03-28T18:44:11.669Z,2.53
2023-03-28T18:46:40.040Z,6.47
2023-03-28T18:49:07.283Z,3.03
2023-03-28T18:51:34.158Z,2.47
2023-03-28T18:54:01.685Z,2.23
2023-03-28T18:56:29.063Z,2.93
2023-03-28T18:58:57.455Z,2.13
2023-03-28T19:01:24.261Z,2.27
2023-03-28T19:03:52.436Z,5.37
2023-03-28T19:06:19.461Z,2.20
2023-03-28T19:08:47.640Z,3.80
2023-03-28T19:11:16.857Z,3.43
2023-03-28T19:13:44.119Z,2.37
2023-03-28T19:16:15.875Z,1.67
2023-03-28T19:18:47.008Z,3.50
2023-03-28T19:21:14.264Z,2.70
2023-03-28T19:23:41.281Z,1.33
2023-03-28T19:26:09.784Z,3.03
2023-03-28T19:28:36.732Z,4.57
2023-03-28T19:31:08.734Z,2.50
2023-03-28T19:33:37.374Z,2.73
2023-03-28T19:36:06.208Z,7.33
2023-03-28T19:38:35.153Z,3.17
2023-03-28T19:41:04.156Z,4.77
2023-03-28T19:43:31.579Z,3.17
2023-03-28T19:46:06.932Z,2.00
2023-03-28T19:48:35.072Z,1.87
2023-03-28T19:51:04.975Z,5.80
2023-03-28T19:53:32.485Z,1.47
2023-03-28T19:56:00.229Z,1.60
2023-03-28T19:58:28.439Z,2.87
2023-03-28T20:00:57.143Z,2.70
2023-03-28T20:03:24.192Z,1.83
2023-03-28T20:05:51.314Z,4.50
2023-03-28T20:08:19.124Z,2.93
2023-03-28T20:10:48.251Z,2.13
2023-03-28T20:13:17.696Z,4.83
2023-03-28T20:15:45.923Z,5.47
2023-03-28T20:18:15.101Z,3.93
2023-03-28T20:20:42.798Z,2.37
2023-03-28T20:23:09.997Z,5.67
2023-03-28T20:25:38.236Z,1.60
2023-03-28T20:28:05.382Z,3.47
2023-03-28T20:30:32.348Z,5.53
2023-03-28T20:32:59.507Z,3.40
2023-03-28T20:35:27.415Z,2.70
2023-03-28T20:37:54.615Z,2.80
2023-03-28T20:40:23.369Z,7.23
2023-03-28T20:42:51.121Z,5.97
2023-03-28T20:45:24.607Z,1.70
2023-03-28T20:47:59.268Z,1.50
2023-03-28T20:50:34.019Z,3.47
2023-03-28T20:53:02.440Z,2.80
2023-03-28T20:55:32.383Z,4.53
2023-03-28T20:57:59.498Z,1.53
2023-03-28T21:00:30.286Z,5.87
2023-03-28T21:02:57.434Z,3.60
2023-03-28T21:05:25.345Z,4.37
2023-03-28T21:07:53.106Z,3.43
2023-03-28T21:10:20.865Z,2.80
2023-03-28T21:12:49.070Z,4.93
2023-03-28T21:15:16.294Z,6.17
2023-03-28T21:17:43.223Z,2.23
2023-03-28T21:20:10.926Z,6.80
2023-03-28T21:22:38.655Z,1.63
2023-03-28T21:25:10.763Z,1.10
2023-03-28T21:27:37.828Z,1.83
2023-03-28T21:30:08.353Z,3.50
2023-03-28T21:32:36.191Z,2.63
2023-03-28T21:35:04.349Z,5.80
2023-03-28T21:37:32.026Z,3.60
2023-03-28T21:40:20.687Z,1.67
2023-03-28T21:42:47.617Z,1.43
2023-03-28T21:45:14.892Z,3.07
2023-03-28T21:47:42.763Z,1.47
2023-03-28T21:50:11.961Z,5.07
2023-03-28T21:52:40.786Z,4.00
2023-03-28T21:55:09.630Z,2.40
2023-03-28T21:57:36.988Z,4.30
2023-03-28T22:00:14.974Z,1.30
2023-03-28T22:02:43.058Z,1.30
2023-03-28T22:05:22.001Z,1.83
2023-03-28T22:07:53.742Z,3.03
2023-03-28T22:10:21.476Z,2.77
2023-03-28T22:12:48.333Z,3.17
2023-03-28T22:15:15.384Z,1.40
2023-03-28T22:17:42.986Z,2.27
2023-03-28T22:20:11.805Z,4.30
2023-03-28T22:22:44.953Z,1.23
2023-03-28T22:25:13.063Z,3.37
2023-03-28T22:27:40.567Z,1.50
2023-03-28T22:30:11.107Z,2.43
2023-03-28T22:32:39.317Z,2.60
2023-03-28T22:35:06.835Z,1.60
2023-03-28T22:37:34.368Z,4.40
2023-03-28T22:40:01.159Z,1.80
2023-03-28T22:42:28.864Z,2.57
2023-03-28T22:44:56.169Z,1.57
2023-03-28T22:47:30.793Z,1.90
2023-03-28T22:50:01.984Z,1.47
2023-03-28T22:52:31.798Z,1.63
2023-03-28T22:54:58.818Z,1.67
2023-03-28T22:57:25.872Z,3.13
2023-03-28T22:59:53.773Z,2.33
2023-03-28T23:02:21.743Z,2.60
2023-03-28T23:04:48.667Z,3.73
2023-03-28T23:07:16.449Z,3.33
2023-03-28T23:09:43.729Z,2.00
2023-03-28T23:12:10.803Z,3.73
2023-03-28T23:14:37.676Z,2.90
2023-03-28T23:17:04.745Z,2.27
2023-03-28T23:19:32.296Z,4.47
2023-03-28T23:22:00.183Z,3.37
2023-03-28T23:24:27.982Z,1.23
2023-03-28T23:26:56.138Z,4.23
2023-03-28T23:29:27.496Z,3.20
2023-03-28T23:31:54.438Z,2.40
2023-03-28T23:34:24.193Z,1.30
2023-03-28T23:36:52.348Z,5.27
2023-03-28T23:39:19.177Z,2.37
2023-03-28T23:41:48.866Z,2.07
2023-03-28T23:44:16.196Z,4.63
2023-03-28T23:46:42.986Z,3.80
2023-03-28T23:49:12.369Z,2.03
2023-03-28T23:51:39.132Z,1.27
2023-03-28T23:54:06.114Z,3.60
2023-03-28T23:56:32.913Z,2.77
2023-03-28T23:59:02.635Z,4.33
